createdAt,value
2019-03-15T00:01:45.391Z,6.10
2019-03-15T00:04:14.122Z,6.00
2019-03-15T00:06:42.855Z,6.00
2019-03-15T00:09:11.624Z,6.00
2019-03-15T00:11:40.353Z,6.00
2019-03-15T00:14:09.185Z,6.00
2019-03-15T00:16:37.982Z,6.00
2019-03-15T00:19:06.747Z,6.10
2019-03-15T00:21:35.558Z,6.10
2019-03-15T00:24:04.285Z,6.00
2019-03-15T00:26:33.217Z,6.00
2019-03-15T00:29:02.130Z,6.00
2019-03-15T00:31:30.999Z,6.10
2019-03-15T00:33:59.750Z,6.10
2019-03-15T00:36:28.509Z,6.10
2019-03-15T00:38:57.344Z,6.00
2019-03-15T00:41:26.174Z,6.00
2019-03-15T00:43:54.917Z,5.90
2019-03-15T00:46:25.660Z,5.90
2019-03-15T00:48:54.390Z,5.90
2019-03-15T00:51:23.269Z,5.90
2019-03-15T00:53:54.306Z,5.90
2019-03-15T00:56:22.411Z,5.80
2019-03-15T00:58:51.238Z,5.70
2019-03-15T01:01:20.485Z,5.70
2019-03-15T01:03:49.516Z,5.80
2019-03-15T01:06:19.885Z,5.70
2019-03-15T01:08:48.641Z,5.70
2019-03-15T01:11:17.380Z,5.60
2019-03-15T01:13:46.133Z,5.50
2019-03-15T01:16:14.873Z,5.60
2019-03-15T01:18:44.605Z,5.50
2019-03-15T01:21:13.463Z,5.50
2019-03-15T01:23:42.289Z,5.50
2019-03-15T01:26:11.013Z,5.40
2019-03-15T01:28:39.800Z,5.40
2019-03-15T01:31:08.525Z,5.40
2019-03-15T01:33:37.284Z,5.40
2019-03-15T01:36:06.021Z,5.40
2019-03-15T01:38:34.782Z,5.30
2019-03-15T01:41:04.286Z,5.30
2019-03-15T01:43:33.181Z,5.30
2019-03-15T01:46:01.963Z,5.20
2019-03-15T01:48:30.690Z,5.00
2019-03-15T01:50:59.559Z,5.10
2019-03-15T01:53:28.342Z,5.10
2019-03-15T01:55:57.096Z,5.10
2019-03-15T01:58:25.829Z,5.00
2019-03-15T02:00:54.594Z,5.00
2019-03-15T02:03:23.334Z,5.00
2019-03-15T02:05:52.094Z,4.90
2019-03-15T02:08:21.062Z,4.80
2019-03-15T02:10:49.826Z,4.70
2019-03-15T02:13:18.633Z,4.80
2019-03-15T02:15:47.484Z,4.70
2019-03-15T02:18:16.274Z,4.80
2019-03-15T02:20:45.001Z,4.70
2019-03-15T02:23:13.923Z,4.60
2019-03-15T02:25:42.593Z,4.60
2019-03-15T02:28:11.349Z,4.60
2019-03-15T02:30:40.134Z,4.60
2019-03-15T02:33:08.966Z,4.60
2019-03-15T02:35:37.694Z,4.70
2019-03-15T02:38:07.766Z,4.80
2019-03-15T02:40:36.550Z,4.80
2019-03-15T02:43:05.312Z,4.90
2019-03-15T02:45:34.042Z,5.00
2019-03-15T02:48:02.871Z,4.90
2019-03-15T02:50:31.607Z,4.80
2019-03-15T02:53:00.366Z,4.80
2019-03-15T02:55:29.223Z,4.80
2019-03-15T02:57:57.984Z,4.80
2019-03-15T03:00:26.933Z,4.90
2019-03-15T03:02:55.625Z,4.90
2019-03-15T03:05:24.386Z,4.80
2019-03-15T03:07:53.129Z,4.70
2019-03-15T03:10:21.948Z,4.70
2019-03-15T03:12:50.686Z,4.90
2019-03-15T03:15:19.437Z,5.00
2019-03-15T03:17:48.241Z,5.00
2019-03-15T03:20:17.006Z,5.10
2019-03-15T03:22:45.748Z,5.20
2019-03-15T03:25:14.502Z,5.30
2019-03-15T03:27:43.317Z,5.20
2019-03-15T03:30:12.485Z,5.20
2019-03-15T03:32:44.121Z,5.20
2019-03-15T03:35:12.897Z,5.20
2019-03-15T03:37:41.626Z,5.40
2019-03-15T03:40:12.300Z,5.30
2019-03-15T03:42:40.761Z,5.30
2019-03-15T03:45:10.093Z,5.30
2019-03-15T03:47:38.846Z,5.30
2019-03-15T03:50:09.548Z,5.30
2019-03-15T03:52:41.461Z,5.30
2019-03-15T03:55:08.676Z,5.30
2019-03-15T03:57:37.506Z,5.30
2019-03-15T04:00:09.184Z,5.40
2019-03-15T04:02:37.941Z,5.40
2019-03-15T04:05:07.137Z,5.40
2019-03-15T04:07:35.940Z,5.50
2019-03-15T04:10:07.774Z,5.50
2019-03-15T04:12:36.526Z,5.50
2019-03-15T04:15:12.252Z,5.50
2019-03-15T04:17:41.019Z,5.40
2019-03-15T04:20:13.125Z,5.50
2019-03-15T04:22:41.983Z,5.50
2019-03-15T04:25:11.142Z,5.50
2019-03-15T04:27:39.877Z,5.50
2019-03-15T04:30:13.842Z,5.50
2019-03-15T04:32:42.622Z,5.50
2019-03-15T04:35:11.382Z,5.50
2019-03-15T04:37:40.196Z,5.60
2019-03-15T04:40:11.370Z,5.50
2019-03-15T04:42:40.269Z,5.50
2019-03-15T04:45:09.570Z,5.50
2019-03-15T04:47:38.302Z,5.40
2019-03-15T04:50:07.658Z,5.50
2019-03-15T04:52:36.613Z,5.60
2019-03-15T04:55:06.662Z,5.60
2019-03-15T04:57:35.380Z,5.60
2019-03-15T05:00:05.982Z,5.70
2019-03-15T05:02:34.717Z,5.60
2019-03-15T05:05:03.877Z,5.50
2019-03-15T05:07:32.609Z,5.70
2019-03-15T05:10:01.339Z,5.70
2019-03-15T05:12:30.165Z,5.60
2019-03-15T05:14:58.897Z,5.70
2019-03-15T05:17:27.656Z,5.70
2019-03-15T05:19:56.422Z,5.70
2019-03-15T05:22:25.277Z,5.80
2019-03-15T05:24:54.042Z,5.90
2019-03-15T05:27:22.848Z,5.80
2019-03-15T05:29:51.578Z,5.90
2019-03-15T05:32:20.439Z,5.80
2019-03-15T05:34:49.274Z,5.80
2019-03-15T05:37:18.033Z,5.80
2019-03-15T05:39:46.830Z,5.80
2019-03-15T05:42:15.681Z,5.90
2019-03-15T05:44:44.719Z,5.90
2019-03-15T05:47:13.458Z,5.90
2019-03-15T05:49:42.420Z,5.90
2019-03-15T05:52:11.207Z,5.90
2019-03-15T05:54:43.419Z,5.80
2019-03-15T05:57:13.417Z,5.80
2019-03-15T05:59:43.542Z,5.70
2019-03-15T06:02:12.574Z,5.80
2019-03-15T06:04:44.751Z,5.70
2019-03-15T06:07:34.450Z,5.60
2019-03-15T06:10:05.693Z,5.70
2019-03-15T06:12:34.435Z,5.50
2019-03-15T06:15:03.257Z,5.40
2019-03-15T06:17:32.166Z,5.20
2019-03-15T06:20:00.998Z,5.10
2019-03-15T06:22:29.761Z,5.00
2019-03-15T06:24:58.521Z,5.10
2019-03-15T06:27:30.952Z,5.10
2019-03-15T06:29:57.656Z,5.20
2019-03-15T06:32:26.431Z,5.10
2019-03-15T06:34:55.166Z,5.00
2019-03-15T06:37:23.935Z,5.00
2019-03-15T06:39:52.661Z,5.00
2019-03-15T06:42:21.429Z,5.20
2019-03-15T06:44:57.840Z,5.20
2019-03-15T06:47:20.738Z,5.10
2019-03-15T06:49:49.479Z,5.10
2019-03-15T06:52:18.238Z,5.20
2019-03-15T06:54:46.973Z,5.30
2019-03-15T06:57:15.743Z,5.30
2019-03-15T06:59:44.457Z,5.20
2019-03-15T07:02:13.213Z,5.40
2019-03-15T07:04:42.028Z,5.50
2019-03-15T07:07:10.817Z,5.60
2019-03-15T07:09:39.582Z,5.60
2019-03-15T07:12:09.618Z,5.70
2019-03-15T07:14:38.854Z,5.70
2019-03-15T07:17:07.661Z,5.90
2019-03-15T07:19:36.414Z,5.80
2019-03-15T07:22:05.152Z,5.80
2019-03-15T07:24:33.918Z,5.90
2019-03-15T07:27:12.038Z,6.00
2019-03-15T07:29:33.206Z,5.90
2019-03-15T07:32:02.038Z,6.00
2019-03-15T07:34:30.831Z,6.00
2019-03-15T07:36:59.659Z,6.10
2019-03-15T07:39:28.416Z,6.10
2019-03-15T07:41:57.226Z,6.20
2019-03-15T07:44:25.988Z,6.30
2019-03-15T07:46:54.765Z,6.40
2019-03-15T07:49:24.002Z,6.50
2019-03-15T07:51:52.819Z,6.50
2019-03-15T07:54:21.496Z,6.60
2019-03-15T07:56:50.254Z,6.60
2019-03-15T07:59:19.014Z,6.60
2019-03-15T08:01:47.842Z,6.60
2019-03-15T08:04:17.473Z,6.60
2019-03-15T08:06:46.597Z,6.60
2019-03-15T08:09:15.389Z,6.60
2019-03-15T08:11:44.144Z,6.60
2019-03-15T08:14:12.888Z,6.50
2019-03-15T08:16:41.653Z,6.60
2019-03-15T08:19:10.440Z,6.50
2019-03-15T08:21:39.205Z,6.50
2019-03-15T08:24:07.941Z,6.50
2019-03-15T08:26:36.701Z,6.50
2019-03-15T08:29:05.464Z,6.50
2019-03-15T08:31:34.195Z,6.50
2019-03-15T08:34:03.105Z,6.40
2019-03-15T08:36:31.844Z,6.30
2019-03-15T08:39:00.616Z,6.20
2019-03-15T08:41:29.418Z,6.20
2019-03-15T08:43:58.173Z,6.20
2019-03-15T08:46:26.977Z,6.20
2019-03-15T08:48:55.836Z,6.10
2019-03-15T08:51:24.556Z,6.20
2019-03-15T08:53:53.322Z,6.20
2019-03-15T08:56:22.166Z,6.10
2019-03-15T08:58:50.946Z,6.10
2019-03-15T09:01:19.671Z,6.20
2019-03-15T09:03:48.402Z,6.20
2019-03-15T09:06:17.171Z,6.20
2019-03-15T09:08:46.860Z,6.20
2019-03-15T09:11:15.623Z,6.20
2019-03-15T09:13:44.352Z,6.20
2019-03-15T09:16:13.177Z,6.10
2019-03-15T09:18:41.901Z,6.00
2019-03-15T09:21:10.665Z,6.10
2019-03-15T09:23:39.389Z,6.00
2019-03-15T09:26:10.439Z,6.00
2019-03-15T09:28:38.585Z,6.10
2019-03-15T09:31:07.679Z,6.10
2019-03-15T09:33:36.678Z,6.00
2019-03-15T09:36:05.517Z,6.10
2019-03-15T09:38:34.246Z,6.10
2019-03-15T09:41:02.996Z,6.10
2019-03-15T09:43:31.765Z,6.10
2019-03-15T09:46:00.496Z,6.00
2019-03-15T09:48:29.265Z,6.00
2019-03-15T09:50:57.997Z,5.90
2019-03-15T09:53:26.756Z,6.00
2019-03-15T09:55:55.525Z,6.00
2019-03-15T09:58:24.336Z,5.80
2019-03-15T10:00:53.014Z,5.90
2019-03-15T10:03:22.713Z,5.90
2019-03-15T10:05:51.553Z,5.90
2019-03-15T10:08:23.293Z,5.80
2019-03-15T10:10:50.806Z,5.80
2019-03-15T10:13:19.571Z,5.80
2019-03-15T10:15:48.465Z,5.90
2019-03-15T10:18:17.446Z,5.90
2019-03-15T10:20:46.241Z,6.00
2019-03-15T10:23:15.093Z,6.00
2019-03-15T10:25:47.147Z,6.10
2019-03-15T10:28:14.275Z,6.10
2019-03-15T10:30:43.197Z,6.10
2019-03-15T10:33:11.924Z,6.20
2019-03-15T10:35:40.684Z,6.20
2019-03-15T10:38:09.413Z,6.30
2019-03-15T10:40:38.166Z,6.30
2019-03-15T10:43:07.008Z,6.30
2019-03-15T10:45:35.776Z,6.40
2019-03-15T10:48:07.840Z,6.40
2019-03-15T10:50:35.022Z,6.50
2019-03-15T10:53:03.829Z,6.50
2019-03-15T10:55:32.649Z,6.50
2019-03-15T10:58:01.325Z,6.70
2019-03-15T11:00:30.121Z,6.60
2019-03-15T11:02:58.885Z,6.70
2019-03-15T11:05:27.617Z,6.80
2019-03-15T11:07:56.378Z,6.90
2019-03-15T11:10:25.110Z,7.00
2019-03-15T11:12:54.030Z,7.10
2019-03-15T11:15:22.870Z,7.10
2019-03-15T11:17:51.658Z,7.30
2019-03-15T11:20:20.385Z,7.10
2019-03-15T11:22:49.146Z,7.20
2019-03-15T11:25:17.867Z,7.10
2019-03-15T11:27:46.652Z,7.20
2019-03-15T11:30:15.848Z,7.20
2019-03-15T11:32:44.984Z,7.30
2019-03-15T11:35:14.079Z,7.30
2019-03-15T11:37:42.796Z,7.30
2019-03-15T11:40:19.374Z,7.40
2019-03-15T11:42:48.349Z,7.40
2019-03-15T11:45:17.108Z,7.40
2019-03-15T11:48:01.757Z,7.40
2019-03-15T11:50:20.933Z,7.40
2019-03-15T11:52:49.949Z,7.50
2019-03-15T11:55:18.711Z,7.50
2019-03-15T11:57:47.525Z,7.60
2019-03-15T12:00:18.430Z,7.60
2019-03-15T12:02:47.162Z,7.70
2019-03-15T12:05:16.190Z,7.70
2019-03-15T12:07:44.915Z,7.80
2019-03-15T12:10:15.654Z,7.90
2019-03-15T12:12:44.389Z,7.90
2019-03-15T12:15:18.135Z,8.00
2019-03-15T12:17:47.050Z,8.10
2019-03-15T12:20:15.927Z,8.10
2019-03-15T12:22:44.762Z,8.20
2019-03-15T12:25:13.724Z,8.20
2019-03-15T12:27:42.509Z,8.30
2019-03-15T12:30:16.244Z,8.30
2019-03-15T12:32:44.977Z,8.40
2019-03-15T12:35:14.402Z,8.50
2019-03-15T12:37:43.202Z,8.60
2019-03-15T12:40:17.481Z,8.70
2019-03-15T12:42:46.260Z,8.70
2019-03-15T12:45:15.465Z,8.80
2019-03-15T12:47:44.228Z,8.80
2019-03-15T12:50:16.347Z,8.90
2019-03-15T12:52:48.959Z,8.90
2019-03-15T12:55:15.907Z,9.00
2019-03-15T12:57:44.690Z,9.00
2019-03-15T13:00:18.448Z,9.10
2019-03-15T13:02:47.202Z,9.10
2019-03-15T13:05:16.004Z,9.10
2019-03-15T13:07:44.869Z,9.10
2019-03-15T13:10:15.962Z,9.10
2019-03-15T13:12:44.725Z,9.20
2019-03-15T13:15:15.532Z,9.30
2019-03-15T13:17:44.378Z,9.30
2019-03-15T13:20:14.432Z,9.30
2019-03-15T13:22:43.162Z,9.30
2019-03-15T13:25:12.537Z,9.40
2019-03-15T13:27:41.249Z,9.50
2019-03-15T13:30:14.111Z,9.50
2019-03-15T13:32:42.874Z,9.50
2019-03-15T13:35:11.738Z,9.50
2019-03-15T13:37:42.925Z,9.50
2019-03-15T13:40:20.065Z,9.40
2019-03-15T13:42:48.867Z,9.40
2019-03-15T13:45:17.969Z,9.40
2019-03-15T13:47:46.702Z,9.50
2019-03-15T13:50:18.965Z,9.40
2019-03-15T13:52:47.790Z,9.50
2019-03-15T13:55:16.643Z,9.50
2019-03-15T13:57:45.382Z,9.60
2019-03-15T14:00:18.476Z,9.60
2019-03-15T14:02:47.206Z,9.60
2019-03-15T14:05:16.050Z,9.60
2019-03-15T14:07:44.853Z,9.60
2019-03-15T14:10:14.786Z,9.60
2019-03-15T14:12:43.630Z,9.60
2019-03-15T14:15:17.124Z,9.60
2019-03-15T14:17:45.952Z,9.60
2019-03-15T14:20:14.697Z,9.70
2019-03-15T14:22:43.509Z,9.60
2019-03-15T14:25:20.652Z,9.50
2019-03-15T14:27:49.419Z,9.60
2019-03-15T14:30:18.145Z,9.60
2019-03-15T14:32:46.984Z,9.70
2019-03-15T14:35:15.718Z,9.70
2019-03-15T14:37:44.553Z,9.60
2019-03-15T14:40:13.466Z,9.60
2019-03-15T14:42:42.469Z,9.60
2019-03-15T14:45:13.630Z,9.70
2019-03-15T14:47:42.458Z,9.60
2019-03-15T14:50:12.674Z,9.60
2019-03-15T14:52:41.396Z,9.60
2019-03-15T14:55:16.879Z,9.70
2019-03-15T14:57:52.708Z,9.70
2019-03-15T15:00:19.877Z,9.70
2019-03-15T15:02:48.592Z,9.70
2019-03-15T15:05:17.429Z,9.70
2019-03-15T15:07:46.168Z,9.70
2019-03-15T15:10:17.062Z,9.70
2019-03-15T15:12:45.871Z,9.70
2019-03-15T15:15:16.590Z,9.70
2019-03-15T15:17:45.331Z,9.70
2019-03-15T15:20:14.473Z,9.70
2019-03-15T15:22:43.201Z,9.70
2019-03-15T15:25:15.774Z,9.70
2019-03-15T15:27:44.506Z,9.70
2019-03-15T15:30:14.578Z,9.70
2019-03-15T15:32:43.335Z,9.70
2019-03-15T15:35:12.683Z,9.80
2019-03-15T15:37:41.419Z,9.80
2019-03-15T15:40:12.288Z,9.80
2019-03-15T15:42:41.086Z,9.70
2019-03-15T15:45:11.811Z,9.70
2019-03-15T15:47:40.580Z,9.80
2019-03-15T15:50:16.525Z,9.80
2019-03-15T15:52:45.365Z,9.80
2019-03-15T15:55:17.082Z,9.70
2019-03-15T15:57:45.881Z,9.70
2019-03-15T16:00:19.738Z,9.70
2019-03-15T16:02:48.506Z,9.70
2019-03-15T16:05:17.237Z,9.70
2019-03-15T16:07:45.997Z,9.70
2019-03-15T16:10:17.634Z,9.60
2019-03-15T16:12:45.778Z,9.70
2019-03-15T16:15:18.387Z,9.60
2019-03-15T16:17:47.319Z,9.70
2019-03-15T16:20:16.228Z,9.60
2019-03-15T16:22:45.029Z,9.70
2019-03-15T16:25:13.963Z,9.70
2019-03-15T16:27:42.802Z,9.70
2019-03-15T16:30:16.859Z,9.60
2019-03-15T16:32:45.889Z,9.70
2019-03-15T16:35:15.313Z,9.60
2019-03-15T16:37:44.344Z,9.60
2019-03-15T16:40:15.011Z,9.60
2019-03-15T16:42:44.035Z,9.60
2019-03-15T16:45:21.181Z,9.60
2019-03-15T16:47:49.920Z,9.60
2019-03-15T16:50:18.698Z,9.50
2019-03-15T16:52:47.541Z,9.50
2019-03-15T16:55:16.366Z,9.50
2019-03-15T16:57:45.093Z,9.50
2019-03-15T17:00:14.844Z,9.50
2019-03-15T17:02:43.653Z,9.50
2019-03-15T17:05:15.596Z,9.50
2019-03-15T17:07:44.442Z,9.50
2019-03-15T17:10:14.539Z,9.50
2019-03-15T17:12:43.325Z,9.50
2019-03-15T17:15:17.016Z,9.40
2019-03-15T17:17:45.745Z,9.50
2019-03-15T17:20:14.503Z,9.40
2019-03-15T17:22:43.314Z,9.40
2019-03-15T17:25:12.483Z,9.40
2019-03-15T17:27:41.210Z,9.50
2019-03-15T17:30:14.569Z,9.50
2019-03-15T17:32:43.325Z,9.50
2019-03-15T17:35:13.398Z,9.40
2019-03-15T17:37:43.232Z,9.40
2019-03-15T17:40:19.326Z,9.40
2019-03-15T17:42:48.324Z,9.50
2019-03-15T17:45:17.058Z,9.50
2019-03-15T17:47:46.381Z,9.50
2019-03-15T17:50:23.213Z,9.50
2019-03-15T17:52:52.081Z,9.50
2019-03-15T17:55:20.816Z,9.50
2019-03-15T17:57:49.584Z,9.50
2019-03-15T18:00:37.290Z,9.50
2019-03-15T18:03:19.787Z,9.50
2019-03-15T18:05:37.802Z,9.50
2019-03-15T18:08:06.627Z,9.50
2019-03-15T18:10:35.440Z,9.50
2019-03-15T18:13:04.437Z,9.50
2019-03-15T18:15:33.254Z,9.50
2019-03-15T18:18:01.985Z,9.50
2019-03-15T18:20:30.860Z,9.50
2019-03-15T18:22:59.821Z,9.60
2019-03-15T18:25:28.582Z,9.60
2019-03-15T18:27:57.314Z,9.60
2019-03-15T18:30:28.770Z,9.60
2019-03-15T18:32:57.481Z,9.60
2019-03-15T18:35:33.737Z,9.50
2019-03-15T18:37:56.690Z,9.60
2019-03-15T18:40:25.449Z,9.60
2019-03-15T18:42:54.177Z,9.60
2019-03-15T18:45:23.010Z,9.60
2019-03-15T18:50:29.422Z,9.70
2019-03-15T18:52:58.327Z,9.60
2019-03-15T18:55:27.222Z,9.60
2019-03-15T18:57:56.057Z,9.60
2019-03-15T19:00:25.600Z,9.50
2019-03-15T19:02:54.361Z,9.70
2019-03-15T19:05:23.088Z,9.70
2019-03-15T19:07:51.854Z,9.80
2019-03-15T19:10:20.579Z,9.80
2019-03-15T19:12:50.807Z,9.80
2019-03-15T19:15:20.889Z,9.80
2019-03-15T19:17:50.517Z,9.80
2019-03-15T19:20:19.450Z,9.90
2019-03-15T19:22:51.048Z,10.00
2019-03-15T19:25:21.221Z,9.90
2019-03-15T19:27:49.994Z,9.90
2019-03-15T19:30:19.297Z,10.00
2019-03-15T19:32:50.121Z,9.90
2019-03-15T19:35:19.349Z,10.00
2019-03-15T19:37:52.505Z,10.00
2019-03-15T19:40:21.450Z,10.00
2019-03-15T19:42:50.214Z,10.00
2019-03-15T19:45:19.367Z,10.10
2019-03-15T19:47:48.315Z,10.10
2019-03-15T19:50:21.227Z,10.10
2019-03-15T19:52:50.879Z,10.10
2019-03-15T19:55:21.299Z,10.20
2019-03-15T19:57:50.085Z,10.10
2019-03-15T20:00:20.231Z,10.10
2019-03-15T20:02:49.271Z,10.20
2019-03-15T20:05:18.215Z,10.20
2019-03-15T20:07:48.387Z,10.20
2019-03-15T20:10:17.614Z,10.20
2019-03-15T20:12:46.873Z,10.20
2019-03-15T20:15:16.893Z,10.20
2019-03-15T20:17:45.754Z,10.30
2019-03-15T20:20:15.548Z,10.30
2019-03-15T20:22:44.437Z,10.30
2019-03-15T20:25:14.491Z,10.30
2019-03-15T20:27:43.311Z,10.40
2019-03-15T20:30:26.922Z,10.40
2019-03-15T20:32:55.131Z,10.40
2019-03-15T20:35:24.016Z,10.40
2019-03-15T20:37:52.869Z,10.40
2019-03-15T20:40:21.792Z,10.40
2019-03-15T20:42:50.616Z,10.40
2019-03-15T20:45:20.569Z,10.30
2019-03-15T20:47:49.317Z,10.40
2019-03-15T20:50:21.217Z,10.30
2019-03-15T20:52:49.984Z,10.40
2019-03-15T20:55:18.793Z,10.40
2019-03-15T20:57:47.527Z,10.40
2019-03-15T21:00:34.404Z,10.40
2019-03-15T21:02:50.970Z,10.50
2019-03-15T21:05:19.737Z,10.50
2019-03-15T21:07:48.494Z,10.50
2019-03-15T21:10:18.113Z,10.50
2019-03-15T21:12:46.857Z,10.50
2019-03-15T21:15:16.136Z,10.40
2019-03-15T21:17:45.131Z,10.50
2019-03-15T21:20:18.097Z,10.50
2019-03-15T21:22:46.843Z,10.50
2019-03-15T21:25:15.678Z,10.50
2019-03-15T21:27:53.433Z,10.40
2019-03-15T21:30:24.459Z,10.40
2019-03-15T21:32:53.181Z,10.40
2019-03-15T21:35:22.017Z,10.40
2019-03-15T21:37:50.925Z,10.50
2019-03-15T21:40:20.485Z,10.40
2019-03-15T21:42:49.244Z,10.50
2019-03-15T21:45:19.176Z,10.50
2019-03-15T21:47:47.964Z,10.50
2019-03-15T21:50:17.896Z,10.40
2019-03-15T21:52:46.729Z,10.40
2019-03-15T21:55:15.536Z,10.40
2019-03-15T21:57:44.323Z,10.40
2019-03-15T22:00:20.609Z,10.30
2019-03-15T22:02:49.361Z,10.30
2019-03-15T22:05:18.203Z,10.30
2019-03-15T22:07:46.957Z,10.20
2019-03-15T22:10:16.762Z,10.30
2019-03-15T22:12:45.526Z,10.20
2019-03-15T22:15:14.569Z,10.20
2019-03-15T22:17:43.450Z,10.20
2019-03-15T22:20:14.369Z,10.20
2019-03-15T22:22:43.240Z,10.10
2019-03-15T22:25:12.177Z,10.20
2019-03-15T22:27:40.938Z,10.20
2019-03-15T22:30:12.761Z,10.20
2019-03-15T22:32:41.501Z,10.20
2019-03-15T22:35:10.390Z,10.20
2019-03-15T22:37:39.225Z,10.10
2019-03-15T22:40:12.744Z,10.10
2019-03-15T22:42:41.573Z,10.00
2019-03-15T22:45:14.350Z,10.00
2019-03-15T22:47:43.188Z,10.00
2019-03-15T22:50:15.289Z,10.00
2019-03-15T22:52:44.105Z,10.00
2019-03-15T22:55:12.982Z,10.10
2019-03-15T22:57:41.785Z,10.10
2019-03-15T23:00:18.699Z,10.10
2019-03-15T23:02:47.539Z,10.10
2019-03-15T23:05:16.469Z,10.10
2019-03-15T23:07:45.277Z,10.10
2019-03-15T23:10:14.152Z,10.10
2019-03-15T23:12:42.917Z,10.10
2019-03-15T23:15:12.628Z,10.10
2019-03-15T23:17:41.385Z,10.20
2019-03-15T23:20:14.565Z,10.20
2019-03-15T23:22:43.418Z,10.10
2019-03-15T23:25:12.358Z,10.10
2019-03-15T23:27:41.123Z,10.10
2019-03-15T23:30:15.000Z,10.10
2019-03-15T23:32:44.265Z,10.10
2019-03-15T23:35:13.054Z,10.10
2019-03-15T23:37:41.888Z,10.10
2019-03-15T23:40:12.527Z,10.10
2019-03-15T23:42:41.493Z,10.10
2019-03-15T23:45:11.092Z,10.10
2019-03-15T23:47:40.158Z,10.10
2019-03-15T23:50:14.177Z,10.00
2019-03-15T23:52:43.017Z,10.10
2019-03-15T23:55:11.895Z,10.10
2019-03-15T23:57:40.621Z,10.10
